sensor_id;sensor_type;location;lat;lon;timestamp;P1;durP1;ratioP1;P2;durP2;ratioP2
54735;SDS011;40632;51.442;11.936;2022-09-09T00:01:09;2.53;;;0.93;;
54735;SDS011;40632;51.442;11.936;2022-09-09T00:03:44;4.03;;;1.20;;
54735;SDS011;40632;51.442;11.936;2022-09-09T00:06:17;3.58;;;1.00;;
54735;SDS011;40632;51.442;11.936;2022-09-09T00:08:51;1.77;;;1.13;;
54735;SDS011;40632;51.442;11.936;2022-09-09T00:11:24;2.85;;;1.17;;
54735;SDS011;40632;51.442;11.936;2022-09-09T00:13:53;3.95;;;1.20;;
54735;SDS011;40632;51.442;11.936;2022-09-09T00:16:22;3.53;;;1.10;;
54735;SDS011;40632;51.442;11.936;2022-09-09T00:18:52;3.53;;;1.30;;
54735;SDS011;40632;51.442;11.936;2022-09-09T00:21:28;9.60;;;1.33;;
54735;SDS011;40632;51.442;11.936;2022-09-09T00:24:00;1.85;;;0.98;;
54735;SDS011;40632;51.442;11.936;2022-09-09T00:26:35;3.88;;;1.42;;
54735;SDS011;40632;51.442;11.936;2022-09-09T00:29:05;4.60;;;1.20;;
54735;SDS011;40632;51.442;11.936;2022-09-09T00:31:39;4.20;;;1.40;;
54735;SDS011;40632;51.442;11.936;2022-09-09T00:34:09;4.05;;;1.45;;
54735;SDS011;40632;51.442;11.936;2022-09-09T00:36:38;7.65;;;1.55;;
54735;SDS011;40632;51.442;11.936;2022-09-09T00:39:08;8.32;;;1.23;;
54735;SDS011;40632;51.442;11.936;2022-09-09T00:41:41;2.50;;;1.00;;
54735;SDS011;40632;51.442;11.936;2022-09-09T00:44:16;3.10;;;1.20;;
54735;SDS011;40632;51.442;11.936;2022-09-09T00:46:54;3.78;;;1.30;;
54735;SDS011;40632;51.442;11.936;2022-09-09T00:49:33;6.90;;;1.30;;
54735;SDS011;40632;51.442;11.936;2022-09-09T00:52:12;6.63;;;1.45;;
54735;SDS011;40632;51.442;11.936;2022-09-09T00:54:51;4.60;;;1.27;;
54735;SDS011;40632;51.442;11.936;2022-09-09T00:57:26;3.22;;;1.05;;
54735;SDS011;40632;51.442;11.936;2022-09-09T00:59:56;4.15;;;1.20;;
54735;SDS011;40632;51.442;11.936;2022-09-09T01:02:42;4.82;;;1.42;;
54735;SDS011;40632;51.442;11.936;2022-09-09T01:05:18;4.35;;;1.40;;
54735;SDS011;40632;51.442;11.936;2022-09-09T01:07:48;4.20;;;1.63;;
54735;SDS011;40632;51.442;11.936;2022-09-09T01:10:17;2.83;;;1.20;;
54735;SDS011;40632;51.442;11.936;2022-09-09T01:12:50;3.17;;;1.50;;
54735;SDS011;40632;51.442;11.936;2022-09-09T01:15:21;3.40;;;1.20;;
54735;SDS011;40632;51.442;11.936;2022-09-09T01:17:52;3.10;;;1.30;;
54735;SDS011;40632;51.442;11.936;2022-09-09T01:20:24;4.55;;;1.30;;
54735;SDS011;40632;51.442;11.936;2022-09-09T01:23:01;6.30;;;1.40;;
54735;SDS011;40632;51.442;11.936;2022-09-09T01:28:39;2.80;;;1.50;;
54735;SDS011;40632;51.442;11.936;2022-09-09T01:31:05;3.20;;;1.23;;
54735;SDS011;40632;51.442;11.936;2022-09-09T01:33:34;3.05;;;1.42;;
54735;SDS011;40632;51.442;11.936;2022-09-09T01:36:00;5.30;;;1.70;;
54735;SDS011;40632;51.442;11.936;2022-09-09T01:38:30;5.97;;;1.85;;
54735;SDS011;40632;51.442;11.936;2022-09-09T01:40:57;3.72;;;1.30;;
54735;SDS011;40632;51.442;11.936;2022-09-09T01:43:23;4.32;;;1.33;;
54735;SDS011;40632;51.442;11.936;2022-09-09T01:45:53;2.42;;;1.42;;
54735;SDS011;40632;51.442;11.936;2022-09-09T01:48:21;5.20;;;1.33;;
54735;SDS011;40632;51.442;11.936;2022-09-09T01:50:48;4.32;;;1.50;;
54735;SDS011;40632;51.442;11.936;2022-09-09T01:53:14;5.00;;;1.25;;
54735;SDS011;40632;51.442;11.936;2022-09-09T01:55:42;4.28;;;1.17;;
54735;SDS011;40632;51.442;11.936;2022-09-09T01:58:17;2.80;;;1.13;;
54735;SDS011;40632;51.442;11.936;2022-09-09T02:01:00;3.63;;;1.15;;
54735;SDS011;40632;51.442;11.936;2022-09-09T02:03:40;5.22;;;1.30;;
54735;SDS011;40632;51.442;11.936;2022-09-09T02:06:14;3.00;;;1.20;;
54735;SDS011;40632;51.442;11.936;2022-09-09T02:08:49;5.85;;;1.40;;
54735;SDS011;40632;51.442;11.936;2022-09-09T02:11:17;7.38;;;1.90;;
54735;SDS011;40632;51.442;11.936;2022-09-09T02:13:45;4.78;;;1.30;;
54735;SDS011;40632;51.442;11.936;2022-09-09T02:16:17;2.53;;;1.23;;
54735;SDS011;40632;51.442;11.936;2022-09-09T02:18:47;5.97;;;1.20;;
54735;SDS011;40632;51.442;11.936;2022-09-09T02:21:15;3.97;;;1.40;;
54735;SDS011;40632;51.442;11.936;2022-09-09T02:23:43;3.92;;;1.20;;
54735;SDS011;40632;51.442;11.936;2022-09-09T02:26:12;5.03;;;1.58;;
54735;SDS011;40632;51.442;11.936;2022-09-09T02:28:39;4.30;;;1.40;;
54735;SDS011;40632;51.442;11.936;2022-09-09T02:31:06;3.97;;;1.20;;
54735;SDS011;40632;51.442;11.936;2022-09-09T02:33:36;4.05;;;1.40;;
54735;SDS011;40632;51.442;11.936;2022-09-09T02:36:05;8.80;;;1.40;;
54735;SDS011;40632;51.442;11.936;2022-09-09T02:38:35;5.60;;;1.40;;
54735;SDS011;40632;51.442;11.936;2022-09-09T02:41:03;6.32;;;1.70;;
54735;SDS011;40632;51.442;11.936;2022-09-09T02:43:31;4.95;;;1.70;;
54735;SDS011;40632;51.442;11.936;2022-09-09T02:45:57;5.43;;;1.52;;
54735;SDS011;40632;51.442;11.936;2022-09-09T02:48:32;4.00;;;1.20;;
54735;SDS011;40632;51.442;11.936;2022-09-09T02:51:14;4.53;;;1.40;;
54735;SDS011;40632;51.442;11.936;2022-09-09T02:53:46;3.90;;;1.40;;
54735;SDS011;40632;51.442;11.936;2022-09-09T02:56:17;3.42;;;1.52;;
54735;SDS011;40632;51.442;11.936;2022-09-09T02:58:46;3.50;;;1.48;;
54735;SDS011;40632;51.442;11.936;2022-09-09T03:01:13;2.60;;;1.67;;
54735;SDS011;40632;51.442;11.936;2022-09-09T03:03:41;3.85;;;1.65;;
54735;SDS011;40632;51.442;11.936;2022-09-09T03:06:07;3.50;;;1.63;;
54735;SDS011;40632;51.442;11.936;2022-09-09T03:08:32;6.03;;;1.95;;
54735;SDS011;40632;51.442;11.936;2022-09-09T03:10:58;5.93;;;1.60;;
54735;SDS011;40632;51.442;11.936;2022-09-09T03:13:24;5.03;;;1.40;;
54735;SDS011;40632;51.442;11.936;2022-09-09T03:15:50;4.05;;;1.80;;
54735;SDS011;40632;51.442;11.936;2022-09-09T03:18:15;4.90;;;1.90;;
54735;SDS011;40632;51.442;11.936;2022-09-09T03:20:43;6.25;;;2.10;;
54735;SDS011;40632;51.442;11.936;2022-09-09T03:23:11;5.35;;;1.60;;
54735;SDS011;40632;51.442;11.936;2022-09-09T03:25:36;5.07;;;1.88;;
54735;SDS011;40632;51.442;11.936;2022-09-09T03:28:02;4.18;;;1.70;;
54735;SDS011;40632;51.442;11.936;2022-09-09T03:30:27;5.00;;;2.10;;
54735;SDS011;40632;51.442;11.936;2022-09-09T03:32:53;3.75;;;1.95;;
54735;SDS011;40632;51.442;11.936;2022-09-09T03:35:19;6.82;;;2.40;;
54735;SDS011;40632;51.442;11.936;2022-09-09T03:37:47;5.65;;;2.55;;
54735;SDS011;40632;51.442;11.936;2022-09-09T03:40:13;5.90;;;2.38;;
54735;SDS011;40632;51.442;11.936;2022-09-09T03:42:39;4.47;;;2.25;;
54735;SDS011;40632;51.442;11.936;2022-09-09T03:45:06;8.43;;;3.50;;
54735;SDS011;40632;51.442;11.936;2022-09-09T03:47:33;7.20;;;2.85;;
54735;SDS011;40632;51.442;11.936;2022-09-09T03:49:58;4.20;;;2.55;;
54735;SDS011;40632;51.442;11.936;2022-09-09T03:52:24;4.90;;;2.85;;
54735;SDS011;40632;51.442;11.936;2022-09-09T03:54:52;7.28;;;2.88;;
54735;SDS011;40632;51.442;11.936;2022-09-09T03:57:18;4.53;;;2.63;;
54735;SDS011;40632;51.442;11.936;2022-09-09T03:59:43;5.78;;;2.70;;
54735;SDS011;40632;51.442;11.936;2022-09-09T04:02:09;5.32;;;2.88;;
54735;SDS011;40632;51.442;11.936;2022-09-09T04:04:35;8.38;;;3.30;;
54735;SDS011;40632;51.442;11.936;2022-09-09T04:07:00;7.88;;;3.10;;
54735;SDS011;40632;51.442;11.936;2022-09-09T04:09:26;7.07;;;3.17;;
54735;SDS011;40632;51.442;11.936;2022-09-09T04:11:54;7.75;;;3.17;;
54735;SDS011;40632;51.442;11.936;2022-09-09T04:14:20;6.22;;;3.25;;
54735;SDS011;40632;51.442;11.936;2022-09-09T04:16:46;8.20;;;3.33;;
54735;SDS011;40632;51.442;11.936;2022-09-09T04:19:12;6.93;;;3.65;;
54735;SDS011;40632;51.442;11.936;2022-09-09T04:21:37;7.82;;;2.80;;
54735;SDS011;40632;51.442;11.936;2022-09-09T04:24:03;9.77;;;3.08;;
54735;SDS011;40632;51.442;11.936;2022-09-09T04:26:29;3.50;;;2.25;;
54735;SDS011;40632;51.442;11.936;2022-09-09T04:28:57;4.35;;;2.60;;
54735;SDS011;40632;51.442;11.936;2022-09-09T04:31:23;5.47;;;2.03;;
54735;SDS011;40632;51.442;11.936;2022-09-09T04:33:48;7.28;;;2.47;;
54735;SDS011;40632;51.442;11.936;2022-09-09T04:36:14;6.22;;;2.60;;
54735;SDS011;40632;51.442;11.936;2022-09-09T04:38:40;5.30;;;2.70;;
54735;SDS011;40632;51.442;11.936;2022-09-09T04:41:06;6.85;;;3.17;;
54735;SDS011;40632;51.442;11.936;2022-09-09T04:43:32;9.15;;;2.22;;
54735;SDS011;40632;51.442;11.936;2022-09-09T04:46:00;9.20;;;2.00;;
54735;SDS011;40632;51.442;11.936;2022-09-09T04:48:26;4.45;;;2.38;;
54735;SDS011;40632;51.442;11.936;2022-09-09T04:50:55;5.78;;;2.45;;
54735;SDS011;40632;51.442;11.936;2022-09-09T04:53:22;4.38;;;2.60;;
54735;SDS011;40632;51.442;11.936;2022-09-09T04:55:48;3.80;;;2.22;;
54735;SDS011;40632;51.442;11.936;2022-09-09T04:58:13;6.38;;;2.67;;
54735;SDS011;40632;51.442;11.936;2022-09-09T05:00:39;9.32;;;3.53;;
54735;SDS011;40632;51.442;11.936;2022-09-09T05:03:07;6.93;;;3.28;;
54735;SDS011;40632;51.442;11.936;2022-09-09T05:05:33;4.60;;;2.55;;
54735;SDS011;40632;51.442;11.936;2022-09-09T05:08:00;15.13;;;4.35;;
54735;SDS011;40632;51.442;11.936;2022-09-09T05:10:26;7.15;;;2.88;;
54735;SDS011;40632;51.442;11.936;2022-09-09T05:12:52;7.43;;;2.85;;
54735;SDS011;40632;51.442;11.936;2022-09-09T05:15:18;7.38;;;2.90;;
54735;SDS011;40632;51.442;11.936;2022-09-09T05:17:43;8.27;;;3.08;;
54735;SDS011;40632;51.442;11.936;2022-09-09T05:20:11;10.52;;;3.20;;
54735;SDS011;40632;51.442;11.936;2022-09-09T05:22:37;14.90;;;4.45;;
54735;SDS011;40632;51.442;11.936;2022-09-09T05:25:03;5.38;;;2.50;;
54735;SDS011;40632;51.442;11.936;2022-09-09T05:27:29;7.30;;;2.60;;
54735;SDS011;40632;51.442;11.936;2022-09-09T05:29:55;9.25;;;2.75;;
54735;SDS011;40632;51.442;11.936;2022-09-09T05:32:20;5.65;;;2.13;;
54735;SDS011;40632;51.442;11.936;2022-09-09T05:34:46;5.32;;;2.58;;
54735;SDS011;40632;51.442;11.936;2022-09-09T05:37:14;6.03;;;2.30;;
54735;SDS011;40632;51.442;11.936;2022-09-09T05:39:39;6.80;;;2.38;;
54735;SDS011;40632;51.442;11.936;2022-09-09T05:42:05;4.70;;;2.17;;
54735;SDS011;40632;51.442;11.936;2022-09-09T05:44:31;7.93;;;2.63;;
54735;SDS011;40632;51.442;11.936;2022-09-09T05:46:56;12.48;;;2.50;;
54735;SDS011;40632;51.442;11.936;2022-09-09T05:49:22;8.35;;;2.10;;
54735;SDS011;40632;51.442;11.936;2022-09-09T05:51:47;7.38;;;1.98;;
54735;SDS011;40632;51.442;11.936;2022-09-09T05:54:15;5.35;;;2.35;;
54735;SDS011;40632;51.442;11.936;2022-09-09T05:56:41;5.88;;;1.73;;
54735;SDS011;40632;51.442;11.936;2022-09-09T05:59:07;6.50;;;1.67;;
54735;SDS011;40632;51.442;11.936;2022-09-09T06:01:34;3.55;;;1.73;;
54735;SDS011;40632;51.442;11.936;2022-09-09T06:04:01;7.00;;;2.10;;
54735;SDS011;40632;51.442;11.936;2022-09-09T06:06:29;6.65;;;1.70;;
54735;SDS011;40632;51.442;11.936;2022-09-09T06:08:56;5.32;;;2.17;;
54735;SDS011;40632;51.442;11.936;2022-09-09T06:11:26;5.70;;;1.77;;
54735;SDS011;40632;51.442;11.936;2022-09-09T06:13:52;6.70;;;1.77;;
54735;SDS011;40632;51.442;11.936;2022-09-09T06:16:19;4.07;;;1.50;;
54735;SDS011;40632;51.442;11.936;2022-09-09T06:18:45;4.28;;;1.80;;
54735;SDS011;40632;51.442;11.936;2022-09-09T06:21:18;9.48;;;2.38;;
54735;SDS011;40632;51.442;11.936;2022-09-09T06:26:11;4.85;;;2.20;;
54735;SDS011;40632;51.442;11.936;2022-09-09T06:28:41;7.30;;;2.00;;
54735;SDS011;40632;51.442;11.936;2022-09-09T06:31:08;6.13;;;2.78;;
54735;SDS011;40632;51.442;11.936;2022-09-09T06:33:35;7.78;;;1.90;;
54735;SDS011;40632;51.442;11.936;2022-09-09T06:36:03;8.32;;;2.05;;
54735;SDS011;40632;51.442;11.936;2022-09-09T06:38:29;5.63;;;1.50;;
54735;SDS011;40632;51.442;11.936;2022-09-09T06:40:55;6.95;;;1.90;;
54735;SDS011;40632;51.442;11.936;2022-09-09T06:43:22;4.90;;;1.58;;
54735;SDS011;40632;51.442;11.936;2022-09-09T06:45:55;3.53;;;1.30;;
54735;SDS011;40632;51.442;11.936;2022-09-09T06:48:21;5.53;;;1.40;;
54735;SDS011;40632;51.442;11.936;2022-09-09T06:50:47;5.78;;;1.50;;
54735;SDS011;40632;51.442;11.936;2022-09-09T06:53:12;5.50;;;1.20;;
54735;SDS011;40632;51.442;11.936;2022-09-09T06:55:41;6.10;;;1.25;;
54735;SDS011;40632;51.442;11.936;2022-09-09T06:58:07;3.90;;;1.20;;
54735;SDS011;40632;51.442;11.936;2022-09-09T07:00:33;8.57;;;1.55;;
54735;SDS011;40632;51.442;11.936;2022-09-09T07:03:01;4.05;;;1.20;;
54735;SDS011;40632;51.442;11.936;2022-09-09T07:05:27;3.83;;;1.00;;
54735;SDS011;40632;51.442;11.936;2022-09-09T07:07:52;4.32;;;0.90;;
54735;SDS011;40632;51.442;11.936;2022-09-09T07:10:18;2.08;;;1.00;;
54735;SDS011;40632;51.442;11.936;2022-09-09T07:12:44;5.63;;;1.08;;
54735;SDS011;40632;51.442;11.936;2022-09-09T07:15:10;6.63;;;1.10;;
54735;SDS011;40632;51.442;11.936;2022-09-09T07:17:35;4.30;;;1.00;;
54735;SDS011;40632;51.442;11.936;2022-09-09T07:20:04;6.47;;;1.10;;
54735;SDS011;40632;51.442;11.936;2022-09-09T07:22:30;3.42;;;1.00;;
54735;SDS011;40632;51.442;11.936;2022-09-09T07:24:55;4.10;;;1.35;;
54735;SDS011;40632;51.442;11.936;2022-09-09T07:27:21;4.55;;;1.00;;
54735;SDS011;40632;51.442;11.936;2022-09-09T07:29:46;4.18;;;0.90;;
54735;SDS011;40632;51.442;11.936;2022-09-09T07:32:12;3.13;;;1.05;;
54735;SDS011;40632;51.442;11.936;2022-09-09T07:34:37;2.75;;;0.93;;
54735;SDS011;40632;51.442;11.936;2022-09-09T07:37:06;2.13;;;0.88;;
54735;SDS011;40632;51.442;11.936;2022-09-09T07:39:31;3.38;;;0.80;;
54735;SDS011;40632;51.442;11.936;2022-09-09T07:41:57;3.70;;;1.13;;
54735;SDS011;40632;51.442;11.936;2022-09-09T07:44:23;4.18;;;1.02;;
54735;SDS011;40632;51.442;11.936;2022-09-09T07:46:49;3.83;;;1.00;;
54735;SDS011;40632;51.442;11.936;2022-09-09T07:49:15;3.60;;;1.00;;
54735;SDS011;40632;51.442;11.936;2022-09-09T07:51:42;4.22;;;0.98;;
54735;SDS011;40632;51.442;11.936;2022-09-09T07:54:13;2.47;;;0.85;;
54735;SDS011;40632;51.442;11.936;2022-09-09T07:56:40;4.57;;;2.17;;
54735;SDS011;40632;51.442;11.936;2022-09-09T07:59:07;3.08;;;0.88;;
54735;SDS011;40632;51.442;11.936;2022-09-09T08:01:33;4.88;;;1.67;;
54735;SDS011;40632;51.442;11.936;2022-09-09T08:04:02;6.35;;;1.63;;
54735;SDS011;40632;51.442;11.936;2022-09-09T08:06:29;5.50;;;1.02;;
54735;SDS011;40632;51.442;11.936;2022-09-09T08:08:56;3.90;;;1.02;;
54735;SDS011;40632;51.442;11.936;2022-09-09T08:11:25;2.55;;;0.77;;
54735;SDS011;40632;51.442;11.936;2022-09-09T08:13:52;3.85;;;1.00;;
54735;SDS011;40632;51.442;11.936;2022-09-09T08:16:19;4.30;;;0.80;;
54735;SDS011;40632;51.442;11.936;2022-09-09T08:18:46;5.07;;;1.10;;
54735;SDS011;40632;51.442;11.936;2022-09-09T08:21:12;3.50;;;0.73;;
54735;SDS011;40632;51.442;11.936;2022-09-09T08:23:39;2.90;;;0.85;;
54735;SDS011;40632;51.442;11.936;2022-09-09T08:26:06;5.65;;;1.42;;
54735;SDS011;40632;51.442;11.936;2022-09-09T08:28:35;4.97;;;1.00;;
54735;SDS011;40632;51.442;11.936;2022-09-09T08:31:08;4.72;;;1.00;;
54735;SDS011;40632;51.442;11.936;2022-09-09T08:33:35;6.35;;;1.00;;
54735;SDS011;40632;51.442;11.936;2022-09-09T08:36:01;6.68;;;1.10;;
54735;SDS011;40632;51.442;11.936;2022-09-09T08:38:27;5.20;;;0.90;;
54735;SDS011;40632;51.442;11.936;2022-09-09T08:40:52;5.32;;;0.82;;
54735;SDS011;40632;51.442;11.936;2022-09-09T08:43:23;5.15;;;0.80;;
54735;SDS011;40632;51.442;11.936;2022-09-09T08:45:54;4.45;;;0.90;;
54735;SDS011;40632;51.442;11.936;2022-09-09T08:48:32;2.72;;;0.80;;
54735;SDS011;40632;51.442;11.936;2022-09-09T08:51:08;3.45;;;0.70;;
54735;SDS011;40632;51.442;11.936;2022-09-09T08:53:35;4.88;;;0.82;;
54735;SDS011;40632;51.442;11.936;2022-09-09T08:56:08;4.63;;;0.90;;
54735;SDS011;40632;51.442;11.936;2022-09-09T08:58:40;2.53;;;0.80;;
54735;SDS011;40632;51.442;11.936;2022-09-09T09:01:17;5.25;;;1.10;;
54735;SDS011;40632;51.442;11.936;2022-09-09T09:03:52;4.00;;;0.90;;
54735;SDS011;40632;51.442;11.936;2022-09-09T09:06:26;4.13;;;0.80;;
54735;SDS011;40632;51.442;11.936;2022-09-09T09:09:08;4.65;;;0.80;;
54735;SDS011;40632;51.442;11.936;2022-09-09T09:11:42;4.70;;;1.42;;
54735;SDS011;40632;51.442;11.936;2022-09-09T09:14:11;3.97;;;1.30;;
54735;SDS011;40632;51.442;11.936;2022-09-09T09:16:46;5.93;;;1.10;;
54735;SDS011;40632;51.442;11.936;2022-09-09T09:19:16;3.63;;;0.90;;
54735;SDS011;40632;51.442;11.936;2022-09-09T09:21:43;2.85;;;0.80;;
54735;SDS011;40632;51.442;11.936;2022-09-09T09:24:12;4.07;;;0.80;;
54735;SDS011;40632;51.442;11.936;2022-09-09T09:29:09;3.17;;;0.85;;
54735;SDS011;40632;51.442;11.936;2022-09-09T09:31:37;2.85;;;0.80;;
54735;SDS011;40632;51.442;11.936;2022-09-09T09:34:07;3.97;;;1.00;;
54735;SDS011;40632;51.442;11.936;2022-09-09T09:36:34;4.85;;;1.63;;
54735;SDS011;40632;51.442;11.936;2022-09-09T09:39:04;3.67;;;1.00;;
54735;SDS011;40632;51.442;11.936;2022-09-09T09:41:33;4.85;;;1.00;;
54735;SDS011;40632;51.442;11.936;2022-09-09T09:44:01;3.92;;;0.80;;
54735;SDS011;40632;51.442;11.936;2022-09-09T09:46:27;3.72;;;0.80;;
54735;SDS011;40632;51.442;11.936;2022-09-09T09:48:56;4.70;;;1.00;;
54735;SDS011;40632;51.442;11.936;2022-09-09T09:51:25;3.83;;;0.77;;
54735;SDS011;40632;51.442;11.936;2022-09-09T09:53:52;2.70;;;0.75;;
54735;SDS011;40632;51.442;11.936;2022-09-09T09:56:18;7.15;;;0.80;;
54735;SDS011;40632;51.442;11.936;2022-09-09T09:58:52;3.10;;;0.80;;
54735;SDS011;40632;51.442;11.936;2022-09-09T10:01:20;4.55;;;1.05;;
54735;SDS011;40632;51.442;11.936;2022-09-09T10:03:50;5.60;;;0.82;;
54735;SDS011;40632;51.442;11.936;2022-09-09T10:06:17;2.67;;;0.90;;
54735;SDS011;40632;51.442;11.936;2022-09-09T10:08:46;3.90;;;0.80;;
54735;SDS011;40632;51.442;11.936;2022-09-09T10:11:24;4.05;;;0.80;;
54735;SDS011;40632;51.442;11.936;2022-09-09T10:14:01;5.30;;;0.90;;
54735;SDS011;40632;51.442;11.936;2022-09-09T10:16:40;4.65;;;0.90;;
54735;SDS011;40632;51.442;11.936;2022-09-09T10:19:19;4.10;;;0.90;;
54735;SDS011;40632;51.442;11.936;2022-09-09T10:21:57;3.35;;;1.00;;
54735;SDS011;40632;51.442;11.936;2022-09-09T10:24:36;3.58;;;0.70;;
54735;SDS011;40632;51.442;11.936;2022-09-09T10:27:15;7.65;;;1.00;;
54735;SDS011;40632;51.442;11.936;2022-09-09T10:29:59;3.55;;;1.00;;
54735;SDS011;40632;51.442;11.936;2022-09-09T10:32:31;2.85;;;0.80;;
54735;SDS011;40632;51.442;11.936;2022-09-09T10:35:02;6.05;;;0.95;;
54735;SDS011;40632;51.442;11.936;2022-09-09T10:37:37;5.93;;;1.42;;
54735;SDS011;40632;51.442;11.936;2022-09-09T10:40:31;3.08;;;0.90;;
54735;SDS011;40632;51.442;11.936;2022-09-09T10:43:00;3.25;;;0.90;;
54735;SDS011;40632;51.442;11.936;2022-09-09T10:45:32;5.88;;;1.00;;
54735;SDS011;40632;51.442;11.936;2022-09-09T10:48:13;6.60;;;1.10;;
54735;SDS011;40632;51.442;11.936;2022-09-09T10:50:55;6.20;;;1.17;;
54735;SDS011;40632;51.442;11.936;2022-09-09T10:53:33;9.05;;;1.30;;
54735;SDS011;40632;51.442;11.936;2022-09-09T10:56:06;7.10;;;1.42;;
54735;SDS011;40632;51.442;11.936;2022-09-09T10:58:35;5.35;;;1.17;;
54735;SDS011;40632;51.442;11.936;2022-09-09T11:01:09;6.80;;;1.63;;
54735;SDS011;40632;51.442;11.936;2022-09-09T11:03:40;7.32;;;1.38;;
54735;SDS011;40632;51.442;11.936;2022-09-09T11:06:09;6.18;;;1.42;;
54735;SDS011;40632;51.442;11.936;2022-09-09T11:08:39;8.07;;;1.27;;
54735;SDS011;40632;51.442;11.936;2022-09-09T11:11:09;4.82;;;1.08;;
54735;SDS011;40632;51.442;11.936;2022-09-09T11:13:38;4.35;;;1.73;;
54735;SDS011;40632;51.442;11.936;2022-09-09T11:16:14;5.60;;;0.90;;
54735;SDS011;40632;51.442;11.936;2022-09-09T11:18:46;4.07;;;0.90;;
54735;SDS011;40632;51.442;11.936;2022-09-09T11:21:14;15.68;;;1.23;;
54735;SDS011;40632;51.442;11.936;2022-09-09T11:23:47;2.72;;;0.90;;
54735;SDS011;40632;51.442;11.936;2022-09-09T11:26:23;2.08;;;0.82;;
54735;SDS011;40632;51.442;11.936;2022-09-09T11:28:58;5.72;;;1.20;;
54735;SDS011;40632;51.442;11.936;2022-09-09T11:31:42;4.38;;;1.20;;
54735;SDS011;40632;51.442;11.936;2022-09-09T11:34:19;4.50;;;1.30;;
54735;SDS011;40632;51.442;11.936;2022-09-09T11:37:11;3.38;;;0.93;;
54735;SDS011;40632;51.442;11.936;2022-09-09T11:39:59;2.70;;;0.75;;
54735;SDS011;40632;51.442;11.936;2022-09-09T11:42:36;4.75;;;0.90;;
54735;SDS011;40632;51.442;11.936;2022-09-09T11:45:08;4.03;;;1.02;;
54735;SDS011;40632;51.442;11.936;2022-09-09T11:47:36;5.13;;;0.95;;
54735;SDS011;40632;51.442;11.936;2022-09-09T11:50:08;2.40;;;0.80;;
54735;SDS011;40632;51.442;11.936;2022-09-09T11:52:36;2.88;;;0.70;;
54735;SDS011;40632;51.442;11.936;2022-09-09T11:55:08;4.18;;;0.93;;
54735;SDS011;40632;51.442;11.936;2022-09-09T11:57:38;3.40;;;0.80;;
54735;SDS011;40632;51.442;11.936;2022-09-09T12:00:04;4.07;;;0.85;;
54735;SDS011;40632;51.442;11.936;2022-09-09T12:02:31;2.75;;;0.90;;
54735;SDS011;40632;51.442;11.936;2022-09-09T12:04:58;5.38;;;0.98;;
54735;SDS011;40632;51.442;11.936;2022-09-09T12:07:29;2.00;;;0.73;;
54735;SDS011;40632;51.442;11.936;2022-09-09T12:09:59;3.65;;;0.90;;
54735;SDS011;40632;51.442;11.936;2022-09-09T12:12:29;3.85;;;1.10;;
54735;SDS011;40632;51.442;11.936;2022-09-09T12:17:48;3.42;;;1.00;;
54735;SDS011;40632;51.442;11.936;2022-09-09T12:20:16;3.97;;;0.82;;
54735;SDS011;40632;51.442;11.936;2022-09-09T12:22:47;3.88;;;0.90;;
54735;SDS011;40632;51.442;11.936;2022-09-09T12:25:23;4.68;;;0.90;;
54735;SDS011;40632;51.442;11.936;2022-09-09T12:28:03;4.97;;;1.10;;
54735;SDS011;40632;51.442;11.936;2022-09-09T12:30:41;3.13;;;0.80;;
54735;SDS011;40632;51.442;11.936;2022-09-09T12:33:16;5.43;;;0.90;;
54735;SDS011;40632;51.442;11.936;2022-09-09T12:35:43;5.75;;;0.80;;
54735;SDS011;40632;51.442;11.936;2022-09-09T12:38:13;5.07;;;1.17;;
54735;SDS011;40632;51.442;11.936;2022-09-09T12:40:53;3.50;;;1.05;;
54735;SDS011;40632;51.442;11.936;2022-09-09T12:43:21;2.67;;;0.90;;
54735;SDS011;40632;51.442;11.936;2022-09-09T12:45:52;2.10;;;0.63;;
54735;SDS011;40632;51.442;11.936;2022-09-09T12:48:20;2.47;;;0.70;;
54735;SDS011;40632;51.442;11.936;2022-09-09T12:50:47;4.00;;;0.90;;
54735;SDS011;40632;51.442;11.936;2022-09-09T12:53:21;3.33;;;1.17;;
54735;SDS011;40632;51.442;11.936;2022-09-09T12:55:49;2.78;;;0.77;;
54735;SDS011;40632;51.442;11.936;2022-09-09T12:58:17;3.15;;;0.80;;
54735;SDS011;40632;51.442;11.936;2022-09-09T13:00:51;3.13;;;0.90;;
54735;SDS011;40632;51.442;11.936;2022-09-09T13:03:18;3.20;;;0.77;;
54735;SDS011;40632;51.442;11.936;2022-09-09T13:05:44;3.78;;;0.70;;
54735;SDS011;40632;51.442;11.936;2022-09-09T13:08:10;3.63;;;1.13;;
54735;SDS011;40632;51.442;11.936;2022-09-09T13:10:38;4.07;;;0.82;;
54735;SDS011;40632;51.442;11.936;2022-09-09T13:13:12;4.20;;;0.90;;
54735;SDS011;40632;51.442;11.936;2022-09-09T13:15:40;4.70;;;0.98;;
54735;SDS011;40632;51.442;11.936;2022-09-09T13:18:18;4.30;;;0.90;;
54735;SDS011;40632;51.442;11.936;2022-09-09T13:20:47;4.68;;;1.00;;
54735;SDS011;40632;51.442;11.936;2022-09-09T13:23:13;5.10;;;0.70;;
54735;SDS011;40632;51.442;11.936;2022-09-09T13:25:40;2.50;;;0.80;;
54735;SDS011;40632;51.442;11.936;2022-09-09T13:28:18;2.72;;;0.80;;
54735;SDS011;40632;51.442;11.936;2022-09-09T13:30:56;3.22;;;0.73;;
54735;SDS011;40632;51.442;11.936;2022-09-09T13:33:23;5.05;;;0.93;;
54735;SDS011;40632;51.442;11.936;2022-09-09T13:35:49;7.25;;;1.15;;
54735;SDS011;40632;51.442;11.936;2022-09-09T13:38:19;3.40;;;0.80;;
54735;SDS011;40632;51.442;11.936;2022-09-09T13:40:54;5.13;;;1.00;;
54735;SDS011;40632;51.442;11.936;2022-09-09T13:43:21;4.13;;;0.77;;
54735;SDS011;40632;51.442;11.936;2022-09-09T13:45:52;4.50;;;0.90;;
54735;SDS011;40632;51.442;11.936;2022-09-09T13:50:53;2.35;;;0.70;;
54735;SDS011;40632;51.442;11.936;2022-09-09T13:53:20;3.53;;;0.73;;
54735;SDS011;40632;51.442;11.936;2022-09-09T13:55:46;2.30;;;0.57;;
54735;SDS011;40632;51.442;11.936;2022-09-09T13:58:14;4.38;;;0.93;;
54735;SDS011;40632;51.442;11.936;2022-09-09T14:00:41;3.72;;;1.17;;
54735;SDS011;40632;51.442;11.936;2022-09-09T14:03:09;5.40;;;1.45;;
54735;SDS011;40632;51.442;11.936;2022-09-09T14:05:35;3.28;;;0.80;;
54735;SDS011;40632;51.442;11.936;2022-09-09T14:08:01;2.55;;;0.50;;
54735;SDS011;40632;51.442;11.936;2022-09-09T14:10:28;2.78;;;0.95;;
54735;SDS011;40632;51.442;11.936;2022-09-09T14:12:54;4.07;;;0.93;;
54735;SDS011;40632;51.442;11.936;2022-09-09T14:15:19;3.38;;;0.70;;
54735;SDS011;40632;51.442;11.936;2022-09-09T14:17:45;2.05;;;0.70;;
54735;SDS011;40632;51.442;11.936;2022-09-09T14:20:13;1.75;;;0.40;;
54735;SDS011;40632;51.442;11.936;2022-09-09T14:22:39;2.47;;;0.52;;
54735;SDS011;40632;51.442;11.936;2022-09-09T14:25:05;3.22;;;0.77;;
54735;SDS011;40632;51.442;11.936;2022-09-09T14:27:31;3.08;;;0.60;;
54735;SDS011;40632;51.442;11.936;2022-09-09T14:29:57;1.90;;;0.60;;
54735;SDS011;40632;51.442;11.936;2022-09-09T14:32:22;2.15;;;0.60;;
54735;SDS011;40632;51.442;11.936;2022-09-09T14:34:48;2.28;;;0.65;;
54735;SDS011;40632;51.442;11.936;2022-09-09T14:37:16;1.60;;;0.50;;
54735;SDS011;40632;51.442;11.936;2022-09-09T14:39:42;1.50;;;0.30;;
54735;SDS011;40632;51.442;11.936;2022-09-09T14:42:07;4.32;;;0.73;;
54735;SDS011;40632;51.442;11.936;2022-09-09T14:44:33;2.38;;;0.57;;
54735;SDS011;40632;51.442;11.936;2022-09-09T14:46:58;1.75;;;0.50;;
54735;SDS011;40632;51.442;11.936;2022-09-09T14:49:24;1.52;;;0.50;;
54735;SDS011;40632;51.442;11.936;2022-09-09T14:51:49;1.80;;;0.65;;
54735;SDS011;40632;51.442;11.936;2022-09-09T14:54:18;4.15;;;0.55;;
54735;SDS011;40632;51.442;11.936;2022-09-09T14:56:43;1.92;;;0.40;;
54735;SDS011;40632;51.442;11.936;2022-09-09T14:59:09;2.70;;;0.57;;